sensor_id;sensor_type;location;lat;lon;timestamp;temperature;humidity
32147;DHT22;32190;49.112;8.598;2022-11-20T00:03:26;10.20;65.10
32147;DHT22;32190;49.112;8.598;2022-11-20T00:09:17;10.20;65.20
32147;DHT22;32190;49.112;8.598;2022-11-20T00:15:08;10.20;65.30
32147;DHT22;32190;49.112;8.598;2022-11-20T00:21:05;10.20;65.40
32147;DHT22;32190;49.112;8.598;2022-11-20T00:26:56;10.30;65.10
32147;DHT22;32190;49.112;8.598;2022-11-20T00:32:47;10.30;65.00
32147;DHT22;32190;49.112;8.598;2022-11-20T01:08:42;10.40;64.80
32147;DHT22;32190;49.112;8.598;2022-11-20T01:14:33;10.30;64.80
32147;DHT22;32190;49.112;8.598;2022-11-20T01:20:24;10.30;64.80
32147;DHT22;32190;49.112;8.598;2022-11-20T01:26:18;10.30;65.00
32147;DHT22;32190;49.112;8.598;2022-11-20T01:32:17;10.30;65.10
32147;DHT22;32190;49.112;8.598;2022-11-20T01:38:07;10.20;65.20
32147;DHT22;32190;49.112;8.598;2022-11-20T01:43:59;10.20;65.40
32147;DHT22;32190;49.112;8.598;2022-11-20T01:49:57;10.20;65.60
32147;DHT22;32190;49.112;8.598;2022-11-20T01:55:54;10.20;66.00
32147;DHT22;32190;49.112;8.598;2022-11-20T02:01:45;10.30;66.00
32147;DHT22;32190;49.112;8.598;2022-11-20T02:07:36;10.30;66.00
32147;DHT22;32190;49.112;8.598;2022-11-20T02:13:28;10.40;66.00
32147;DHT22;32190;49.112;8.598;2022-11-20T02:19:34;10.50;66.10
32147;DHT22;32190;49.112;8.598;2022-11-20T02:25:25;10.50;66.10
32147;DHT22;32190;49.112;8.598;2022-11-20T02:31:17;10.60;66.30
32147;DHT22;32190;49.112;8.598;2022-11-20T02:37:07;10.60;66.30
32147;DHT22;32190;49.112;8.598;2022-11-20T02:42:58;10.60;66.20
32147;DHT22;32190;49.112;8.598;2022-11-20T02:48:49;10.70;66.20
32147;DHT22;32190;49.112;8.598;2022-11-20T02:54:39;10.70;66.80
32147;DHT22;32190;49.112;8.598;2022-11-20T03:00:30;10.80;66.20
32147;DHT22;32190;49.112;8.598;2022-11-20T03:19:33;10.80;66.40
32147;DHT22;32190;49.112;8.598;2022-11-20T03:44:59;10.80;66.20
32147;DHT22;32190;49.112;8.598;2022-11-20T03:50:50;10.80;66.20
32147;DHT22;32190;49.112;8.598;2022-11-20T03:56:59;10.90;66.10
32147;DHT22;32190;49.112;8.598;2022-11-20T04:03:26;10.90;66.00
32147;DHT22;32190;49.112;8.598;2022-11-20T04:09:52;10.90;66.00
32147;DHT22;32190;49.112;8.598;2022-11-20T04:15:46;10.80;65.90
32147;DHT22;32190;49.112;8.598;2022-11-20T04:21:39;10.90;65.90
32147;DHT22;32190;49.112;8.598;2022-11-20T04:27:38;10.90;66.00
32147;DHT22;32190;49.112;8.598;2022-11-20T04:33:28;10.80;66.00
32147;DHT22;32190;49.112;8.598;2022-11-20T04:39:19;10.90;66.00
32147;DHT22;32190;49.112;8.598;2022-11-20T04:45:10;10.90;66.10
32147;DHT22;32190;49.112;8.598;2022-11-20T04:51:03;10.90;66.10
32147;DHT22;32190;49.112;8.598;2022-11-20T04:56:54;10.90;66.00
32147;DHT22;32190;49.112;8.598;2022-11-20T05:02:47;10.90;66.00
32147;DHT22;32190;49.112;8.598;2022-11-20T05:08:45;10.90;66.00
32147;DHT22;32190;49.112;8.598;2022-11-20T05:14:35;11.00;66.00
32147;DHT22;32190;49.112;8.598;2022-11-20T05:20:26;11.00;66.00
32147;DHT22;32190;49.112;8.598;2022-11-20T05:26:27;11.00;66.00
32147;DHT22;32190;49.112;8.598;2022-11-20T05:32:18;11.00;66.00
32147;DHT22;32190;49.112;8.598;2022-11-20T05:38:16;11.00;66.00
32147;DHT22;32190;49.112;8.598;2022-11-20T05:44:06;11.00;65.90
32147;DHT22;32190;49.112;8.598;2022-11-20T05:50:31;11.00;65.90
32147;DHT22;32190;49.112;8.598;2022-11-20T05:56:32;11.00;66.00
32147;DHT22;32190;49.112;8.598;2022-11-20T06:02:50;11.00;65.80
32147;DHT22;32190;49.112;8.598;2022-11-20T06:15:21;11.00;66.00
32147;DHT22;32190;49.112;8.598;2022-11-20T06:21:17;11.10;66.00
32147;DHT22;32190;49.112;8.598;2022-11-20T06:27:11;11.10;66.00
32147;DHT22;32190;49.112;8.598;2022-11-20T06:33:36;11.10;65.90
32147;DHT22;32190;49.112;8.598;2022-11-20T06:39:34;11.10;66.00
32147;DHT22;32190;49.112;8.598;2022-11-20T06:45:24;11.10;65.90
32147;DHT22;32190;49.112;8.598;2022-11-20T06:51:15;11.10;65.90
32147;DHT22;32190;49.112;8.598;2022-11-20T06:57:06;11.10;65.90
32147;DHT22;32190;49.112;8.598;2022-11-20T07:02:56;11.10;66.00
32147;DHT22;32190;49.112;8.598;2022-11-20T07:08:47;11.10;66.00
32147;DHT22;32190;49.112;8.598;2022-11-20T07:14:54;11.10;66.00
32147;DHT22;32190;49.112;8.598;2022-11-20T07:20:45;11.10;65.90
32147;DHT22;32190;49.112;8.598;2022-11-20T07:26:36;11.10;66.10
32147;DHT22;32190;49.112;8.598;2022-11-20T07:32:26;11.10;66.00
32147;DHT22;32190;49.112;8.598;2022-11-20T07:38:17;11.10;66.00
32147;DHT22;32190;49.112;8.598;2022-11-20T07:44:07;11.00;66.00
32147;DHT22;32190;49.112;8.598;2022-11-20T07:49:58;11.10;66.20
32147;DHT22;32190;49.112;8.598;2022-11-20T07:55:48;11.10;66.30
32147;DHT22;32190;49.112;8.598;2022-11-20T08:01:40;11.10;66.30
32147;DHT22;32190;49.112;8.598;2022-11-20T08:07:35;11.10;66.20
32147;DHT22;32190;49.112;8.598;2022-11-20T08:13:26;11.10;66.30
32147;DHT22;32190;49.112;8.598;2022-11-20T08:19:35;11.10;66.20
32147;DHT22;32190;49.112;8.598;2022-11-20T08:25:27;11.10;66.40
32147;DHT22;32190;49.112;8.598;2022-11-20T08:31:18;11.10;66.40
32147;DHT22;32190;49.112;8.598;2022-11-20T08:37:08;11.10;66.70
32147;DHT22;32190;49.112;8.598;2022-11-20T08:43:25;11.20;66.40
32147;DHT22;32190;49.112;8.598;2022-11-20T09:15:24;11.20;66.70
32147;DHT22;32190;49.112;8.598;2022-11-20T09:21:20;11.20;66.70
32147;DHT22;32190;49.112;8.598;2022-11-20T09:27:13;11.20;66.80
32147;DHT22;32190;49.112;8.598;2022-11-20T09:33:05;11.30;66.70
32147;DHT22;32190;49.112;8.598;2022-11-20T09:57:03;11.40;67.10
32147;DHT22;32190;49.112;8.598;2022-11-20T10:02:58;11.40;67.40
32147;DHT22;32190;49.112;8.598;2022-11-20T10:08:59;11.50;67.20
32147;DHT22;32190;49.112;8.598;2022-11-20T10:14:55;11.60;67.30
32147;DHT22;32190;49.112;8.598;2022-11-20T10:57:44;11.60;67.40
32147;DHT22;32190;49.112;8.598;2022-11-20T11:03:37;11.60;67.90
32147;DHT22;32190;49.112;8.598;2022-11-20T11:09:34;11.90;68.20
32147;DHT22;32190;49.112;8.598;2022-11-20T11:15:28;12.00;68.60
32147;DHT22;32190;49.112;8.598;2022-11-20T11:21:25;12.20;68.20
32147;DHT22;32190;49.112;8.598;2022-11-20T11:27:16;12.40;68.50
32147;DHT22;32190;49.112;8.598;2022-11-20T11:33:27;12.50;68.10
32147;DHT22;32190;49.112;8.598;2022-11-20T11:39:19;12.70;67.90
32147;DHT22;32190;49.112;8.598;2022-11-20T11:45:14;12.80;67.70
32147;DHT22;32190;49.112;8.598;2022-11-20T11:51:08;12.90;67.40
32147;DHT22;32190;49.112;8.598;2022-11-20T11:57:01;13.00;67.20
32147;DHT22;32190;49.112;8.598;2022-11-20T12:03:34;13.00;67.10
32147;DHT22;32190;49.112;8.598;2022-11-20T12:09:35;13.00;67.40
32147;DHT22;32190;49.112;8.598;2022-11-20T12:15:33;13.20;66.30
32147;DHT22;32190;49.112;8.598;2022-11-20T12:21:28;13.20;66.60
32147;DHT22;32190;49.112;8.598;2022-11-20T12:33:59;13.20;65.80
32147;DHT22;32190;49.112;8.598;2022-11-20T13:09:53;13.40;65.50
32147;DHT22;32190;49.112;8.598;2022-11-20T13:16:09;13.40;65.20
32147;DHT22;32190;49.112;8.598;2022-11-20T13:22:01;13.40;63.80
32147;DHT22;32190;49.112;8.598;2022-11-20T13:27:57;13.40;64.40
32147;DHT22;32190;49.112;8.598;2022-11-20T13:33:52;13.40;64.00
32147;DHT22;32190;49.112;8.598;2022-11-20T13:39:44;13.30;63.20
32147;DHT22;32190;49.112;8.598;2022-11-20T13:45:38;13.30;62.70
32147;DHT22;32190;49.112;8.598;2022-11-20T13:51:44;13.30;62.80
32147;DHT22;32190;49.112;8.598;2022-11-20T14:03:49;13.20;62.40
32147;DHT22;32190;49.112;8.598;2022-11-20T14:09:53;13.30;63.00
32147;DHT22;32190;49.112;8.598;2022-11-20T14:15:47;13.30;62.40
32147;DHT22;32190;49.112;8.598;2022-11-20T14:27:40;13.20;62.10
32147;DHT22;32190;49.112;8.598;2022-11-20T14:33:32;13.20;62.20
32147;DHT22;32190;49.112;8.598;2022-11-20T14:39:34;13.20;62.40
32147;DHT22;32190;49.112;8.598;2022-11-20T14:45:26;13.10;62.20
32147;DHT22;32190;49.112;8.598;2022-11-20T14:51:30;13.10;62.60
32147;DHT22;32190;49.112;8.598;2022-11-20T15:27:29;12.90;61.30
32147;DHT22;32190;49.112;8.598;2022-11-20T15:33:20;12.80;61.60
32147;DHT22;32190;49.112;8.598;2022-11-20T15:39:14;12.80;61.90
32147;DHT22;32190;49.112;8.598;2022-11-20T15:45:05;12.80;61.50
32147;DHT22;32190;49.112;8.598;2022-11-20T15:57:01;12.70;60.80
32147;DHT22;32190;49.112;8.598;2022-11-20T16:02:53;12.70;61.70
32147;DHT22;32190;49.112;8.598;2022-11-20T16:08:46;12.70;61.80
32147;DHT22;32190;49.112;8.598;2022-11-20T16:14:37;12.70;61.30
32147;DHT22;32190;49.112;8.598;2022-11-20T16:20:54;12.70;61.90
32147;DHT22;32190;49.112;8.598;2022-11-20T16:26:44;12.70;61.60
32147;DHT22;32190;49.112;8.598;2022-11-20T16:32:35;12.70;61.80
32147;DHT22;32190;49.112;8.598;2022-11-20T16:38:25;12.70;61.20
32147;DHT22;32190;49.112;8.598;2022-11-20T16:44:16;12.60;61.60
32147;DHT22;32190;49.112;8.598;2022-11-20T16:50:09;12.60;62.00
32147;DHT22;32190;49.112;8.598;2022-11-20T17:02:01;12.60;60.80
32147;DHT22;32190;49.112;8.598;2022-11-20T17:07:51;12.60;61.20
32147;DHT22;32190;49.112;8.598;2022-11-20T17:13:42;12.50;61.30
32147;DHT22;32190;49.112;8.598;2022-11-20T17:19:33;12.50;61.60
32147;DHT22;32190;49.112;8.598;2022-11-20T17:55:31;12.40;62.30
32147;DHT22;32190;49.112;8.598;2022-11-20T18:01:41;12.40;62.00
32147;DHT22;32190;49.112;8.598;2022-11-20T18:07:32;12.40;61.80
32147;DHT22;32190;49.112;8.598;2022-11-20T18:19:49;12.30;62.10
32147;DHT22;32190;49.112;8.598;2022-11-20T18:25:44;12.30;61.90
32147;DHT22;32190;49.112;8.598;2022-11-20T18:31:43;12.20;62.10
32147;DHT22;32190;49.112;8.598;2022-11-20T18:37:33;12.20;62.30
32147;DHT22;32190;49.112;8.598;2022-11-20T18:43:27;12.20;62.30
32147;DHT22;32190;49.112;8.598;2022-11-20T18:49:36;12.20;62.20
32147;DHT22;32190;49.112;8.598;2022-11-20T18:55:27;12.10;62.40
32147;DHT22;32190;49.112;8.598;2022-11-20T19:01:17;12.00;62.50
32147;DHT22;32190;49.112;8.598;2022-11-20T19:07:09;12.00;62.70
32147;DHT22;32190;49.112;8.598;2022-11-20T19:13:01;11.90;62.60
32147;DHT22;32190;49.112;8.598;2022-11-20T19:18:52;11.90;62.70
32147;DHT22;32190;49.112;8.598;2022-11-20T19:24:42;11.80;62.60
32147;DHT22;32190;49.112;8.598;2022-11-20T19:30:33;11.80;62.70
32147;DHT22;32190;49.112;8.598;2022-11-20T19:37:04;11.80;62.90
32147;DHT22;32190;49.112;8.598;2022-11-20T19:42:54;11.70;62.80
32147;DHT22;32190;49.112;8.598;2022-11-20T19:48:45;11.80;63.00
32147;DHT22;32190;49.112;8.598;2022-11-20T19:54:36;11.70;63.00
32147;DHT22;32190;49.112;8.598;2022-11-20T20:00:27;11.70;63.00
32147;DHT22;32190;49.112;8.598;2022-11-20T20:06:24;11.70;63.20
32147;DHT22;32190;49.112;8.598;2022-11-20T20:12:24;11.70;63.20
32147;DHT22;32190;49.112;8.598;2022-11-20T20:18:23;11.60;63.30
32147;DHT22;32190;49.112;8.598;2022-11-20T20:24:14;11.50;63.40
32147;DHT22;32190;49.112;8.598;2022-11-20T20:30:07;11.60;63.60
32147;DHT22;32190;49.112;8.598;2022-11-20T20:36:33;11.50;63.80
32147;DHT22;32190;49.112;8.598;2022-11-20T20:42:24;11.40;63.90
32147;DHT22;32190;49.112;8.598;2022-11-20T20:48:36;11.40;63.90
32147;DHT22;32190;49.112;8.598;2022-11-20T20:54:40;11.40;64.20
32147;DHT22;32190;49.112;8.598;2022-11-20T21:00:41;11.40;64.20
32147;DHT22;32190;49.112;8.598;2022-11-20T21:06:32;11.40;64.20
32147;DHT22;32190;49.112;8.598;2022-11-20T21:12:23;11.40;64.20
32147;DHT22;32190;49.112;8.598;2022-11-20T21:18:14;11.40;64.20
32147;DHT22;32190;49.112;8.598;2022-11-20T21:24:33;11.40;64.20
32147;DHT22;32190;49.112;8.598;2022-11-20T21:30:30;11.40;64.40
32147;DHT22;32190;49.112;8.598;2022-11-20T21:36:23;11.40;64.20
32147;DHT22;32190;49.112;8.598;2022-11-20T21:42:14;11.40;64.20
32147;DHT22;32190;49.112;8.598;2022-11-20T21:48:05;11.40;64.30
32147;DHT22;32190;49.112;8.598;2022-11-20T21:53:55;11.30;64.30
32147;DHT22;32190;49.112;8.598;2022-11-20T21:59:46;11.40;64.40
32147;DHT22;32190;49.112;8.598;2022-11-20T22:05:37;11.30;64.30
32147;DHT22;32190;49.112;8.598;2022-11-20T22:11:27;11.30;64.40
32147;DHT22;32190;49.112;8.598;2022-11-20T22:17:18;11.30;64.40
32147;DHT22;32190;49.112;8.598;2022-11-20T22:23:29;11.20;64.30
32147;DHT22;32190;49.112;8.598;2022-11-20T22:59:21;11.00;65.00
32147;DHT22;32190;49.112;8.598;2022-11-20T23:05:12;11.10;64.60
32147;DHT22;32190;49.112;8.598;2022-11-20T23:11:09;11.00;64.60
32147;DHT22;32190;49.112;8.598;2022-11-20T23:17:00;11.00;64.60
32147;DHT22;32190;49.112;8.598;2022-11-20T23:22:50;11.00;64.50
32147;DHT22;32190;49.112;8.598;2022-11-20T23:28:41;11.00;64.60
32147;DHT22;32190;49.112;8.598;2022-11-20T23:34:32;11.00;64.60
32147;DHT22;32190;49.112;8.598;2022-11-20T23:40:23;11.00;64.80
32147;DHT22;32190;49.112;8.598;2022-11-20T23:46:13;11.00;64.80
32147;DHT22;32190;49.112;8.598;2022-11-20T23:52:04;11.10;64.80
32147;DHT22;32190;49.112;8.598;2022-11-20T23:57:55;11.10;64.70
